sensor_id;sensor_type;location;lat;lon;timestamp;P1;durP1;ratioP1;P2;durP2;ratioP2
80963;SDS011;70425;59.322;13.486;2023-08-07T00:04:15;3.70;;;2.60;;
80963;SDS011;70425;59.322;13.486;2023-08-07T00:07:10;3.60;;;2.10;;
80963;SDS011;70425;59.322;13.486;2023-08-07T00:09:59;5.53;;;2.53;;
80963;SDS011;70425;59.322;13.486;2023-08-07T00:12:49;3.00;;;2.47;;
80963;SDS011;70425;59.322;13.486;2023-08-07T00:15:38;2.97;;;2.20;;
80963;SDS011;70425;59.322;13.486;2023-08-07T00:18:28;6.30;;;2.77;;
80963;SDS011;70425;59.322;13.486;2023-08-07T00:21:17;3.17;;;2.60;;
80963;SDS011;70425;59.322;13.486;2023-08-07T00:24:07;2.73;;;2.20;;
80963;SDS011;70425;59.322;13.486;2023-08-07T00:26:57;5.00;;;2.60;;
80963;SDS011;70425;59.322;13.486;2023-08-07T00:29:47;3.27;;;2.30;;
80963;SDS011;70425;59.322;13.486;2023-08-07T00:32:36;3.67;;;2.50;;
80963;SDS011;70425;59.322;13.486;2023-08-07T00:35:30;4.23;;;2.33;;
80963;SDS011;70425;59.322;13.486;2023-08-07T00:38:19;5.87;;;2.83;;
80963;SDS011;70425;59.322;13.486;2023-08-07T00:41:08;6.70;;;2.30;;
80963;SDS011;70425;59.322;13.486;2023-08-07T00:54:18;1.93;;;1.73;;
80963;SDS011;70425;59.322;13.486;2023-08-07T01:10:44;1.93;;;1.83;;
80963;SDS011;70425;59.322;13.486;2023-08-07T01:25:12;2.00;;;1.30;;
80963;SDS011;70425;59.322;13.486;2023-08-07T01:41:29;1.23;;;1.20;;
80963;SDS011;70425;59.322;13.486;2023-08-07T01:44:46;1.77;;;1.20;;
80963;SDS011;70425;59.322;13.486;2023-08-07T01:47:36;2.37;;;0.97;;
80963;SDS011;70425;59.322;13.486;2023-08-07T01:50:27;1.00;;;1.00;;
80963;SDS011;70425;59.322;13.486;2023-08-07T01:56:05;1.00;;;1.00;;
80963;SDS011;70425;59.322;13.486;2023-08-07T01:59:05;1.10;;;1.10;;
80963;SDS011;70425;59.322;13.486;2023-08-07T02:01:54;1.10;;;1.00;;
80963;SDS011;70425;59.322;13.486;2023-08-07T02:07:46;2.03;;;1.30;;
80963;SDS011;70425;59.322;13.486;2023-08-07T02:10:40;2.30;;;1.00;;
80963;SDS011;70425;59.322;13.486;2023-08-07T02:13:32;1.10;;;1.10;;
80963;SDS011;70425;59.322;13.486;2023-08-07T02:16:21;0.80;;;0.80;;
80963;SDS011;70425;59.322;13.486;2023-08-07T02:19:16;1.00;;;0.90;;
80963;SDS011;70425;59.322;13.486;2023-08-07T02:39:36;1.37;;;0.90;;
80963;SDS011;70425;59.322;13.486;2023-08-07T02:42:26;2.23;;;0.93;;
80963;SDS011;70425;59.322;13.486;2023-08-07T02:45:24;0.90;;;0.90;;
80963;SDS011;70425;59.322;13.486;2023-08-07T02:48:34;1.13;;;0.97;;
80963;SDS011;70425;59.322;13.486;2023-08-07T02:51:32;1.20;;;1.10;;
80963;SDS011;70425;59.322;13.486;2023-08-07T02:54:23;0.80;;;0.80;;
80963;SDS011;70425;59.322;13.486;2023-08-07T02:57:23;0.80;;;0.80;;
80963;SDS011;70425;59.322;13.486;2023-08-07T03:00:15;2.63;;;0.83;;
80963;SDS011;70425;59.322;13.486;2023-08-07T03:14:45;0.83;;;0.83;;
80963;SDS011;70425;59.322;13.486;2023-08-07T03:28:47;1.50;;;0.83;;
80963;SDS011;70425;59.322;13.486;2023-08-07T03:31:44;0.70;;;0.70;;
80963;SDS011;70425;59.322;13.486;2023-08-07T03:34:32;0.70;;;0.70;;
80963;SDS011;70425;59.322;13.486;2023-08-07T03:37:22;0.90;;;0.90;;
80963;SDS011;70425;59.322;13.486;2023-08-07T03:40:11;0.90;;;0.90;;
80963;SDS011;70425;59.322;13.486;2023-08-07T03:43:00;1.80;;;0.97;;
80963;SDS011;70425;59.322;13.486;2023-08-07T03:45:54;0.97;;;0.80;;
80963;SDS011;70425;59.322;13.486;2023-08-07T03:48:43;0.80;;;0.80;;
80963;SDS011;70425;59.322;13.486;2023-08-07T03:51:32;0.93;;;0.80;;
80963;SDS011;70425;59.322;13.486;2023-08-07T03:54:22;0.70;;;0.70;;
80963;SDS011;70425;59.322;13.486;2023-08-07T03:57:11;1.43;;;0.80;;
80963;SDS011;70425;59.322;13.486;2023-08-07T04:25:02;1.13;;;0.80;;
80963;SDS011;70425;59.322;13.486;2023-08-07T04:30:49;1.13;;;0.90;;
80963;SDS011;70425;59.322;13.486;2023-08-07T04:33:46;0.90;;;0.90;;
80963;SDS011;70425;59.322;13.486;2023-08-07T04:36:35;1.27;;;0.90;;
80963;SDS011;70425;59.322;13.486;2023-08-07T04:39:25;1.00;;;1.00;;
80963;SDS011;70425;59.322;13.486;2023-08-07T04:42:20;0.97;;;0.90;;
80963;SDS011;70425;59.322;13.486;2023-08-07T04:45:15;0.90;;;0.90;;
80963;SDS011;70425;59.322;13.486;2023-08-07T04:48:29;1.07;;;1.07;;
80963;SDS011;70425;59.322;13.486;2023-08-07T04:54:30;1.43;;;1.00;;
80963;SDS011;70425;59.322;13.486;2023-08-07T04:57:49;3.53;;;1.00;;
80963;SDS011;70425;59.322;13.486;2023-08-07T05:00:43;1.03;;;1.00;;
80963;SDS011;70425;59.322;13.486;2023-08-07T05:03:46;1.20;;;1.10;;
80963;SDS011;70425;59.322;13.486;2023-08-07T05:06:50;2.57;;;1.23;;
80963;SDS011;70425;59.322;13.486;2023-08-07T05:09:43;4.33;;;1.23;;
80963;SDS011;70425;59.322;13.486;2023-08-07T05:12:37;3.63;;;1.13;;
80963;SDS011;70425;59.322;13.486;2023-08-07T05:15:29;1.37;;;1.27;;
80963;SDS011;70425;59.322;13.486;2023-08-07T05:18:40;1.33;;;1.30;;
80963;SDS011;70425;59.322;13.486;2023-08-07T05:21:42;1.40;;;1.30;;
80963;SDS011;70425;59.322;13.486;2023-08-07T05:24:36;1.47;;;1.37;;
80963;SDS011;70425;59.322;13.486;2023-08-07T05:27:25;1.50;;;1.40;;
80963;SDS011;70425;59.322;13.486;2023-08-07T05:30:16;1.50;;;1.40;;
80963;SDS011;70425;59.322;13.486;2023-08-07T05:33:12;1.50;;;1.40;;
80963;SDS011;70425;59.322;13.486;2023-08-07T05:36:01;1.47;;;1.20;;
80963;SDS011;70425;59.322;13.486;2023-08-07T05:52:35;2.87;;;1.93;;
80963;SDS011;70425;59.322;13.486;2023-08-07T05:55:38;2.90;;;1.63;;
80963;SDS011;70425;59.322;13.486;2023-08-07T06:01:41;2.63;;;1.90;;
80963;SDS011;70425;59.322;13.486;2023-08-07T06:04:39;3.23;;;2.03;;
80963;SDS011;70425;59.322;13.486;2023-08-07T06:07:35;2.43;;;2.23;;
80963;SDS011;70425;59.322;13.486;2023-08-07T06:10:26;3.03;;;2.20;;
80963;SDS011;70425;59.322;13.486;2023-08-07T06:16:26;2.70;;;2.50;;
80963;SDS011;70425;59.322;13.486;2023-08-07T06:32:43;3.07;;;2.77;;
80963;SDS011;70425;59.322;13.486;2023-08-07T06:38:17;4.57;;;3.30;;
80963;SDS011;70425;59.322;13.486;2023-08-07T06:41:06;3.07;;;2.77;;
80963;SDS011;70425;59.322;13.486;2023-08-07T06:43:54;4.63;;;3.10;;
80963;SDS011;70425;59.322;13.486;2023-08-07T06:46:44;2.70;;;2.40;;
80963;SDS011;70425;59.322;13.486;2023-08-07T06:49:34;7.43;;;3.20;;
80963;SDS011;70425;59.322;13.486;2023-08-07T06:52:23;3.30;;;3.00;;
80963;SDS011;70425;59.322;13.486;2023-08-07T06:55:12;3.50;;;3.20;;
80963;SDS011;70425;59.322;13.486;2023-08-07T06:58:02;3.50;;;3.20;;
80963;SDS011;70425;59.322;13.486;2023-08-07T07:00:52;4.03;;;3.63;;
80963;SDS011;70425;59.322;13.486;2023-08-07T07:03:42;5.03;;;3.90;;
80963;SDS011;70425;59.322;13.486;2023-08-07T07:06:33;4.20;;;3.80;;
80963;SDS011;70425;59.322;13.486;2023-08-07T07:12:42;5.77;;;3.90;;
80963;SDS011;70425;59.322;13.486;2023-08-07T07:15:40;7.73;;;4.43;;
80963;SDS011;70425;59.322;13.486;2023-08-07T07:18:30;5.93;;;4.30;;
80963;SDS011;70425;59.322;13.486;2023-08-07T07:21:19;5.20;;;4.70;;
80963;SDS011;70425;59.322;13.486;2023-08-07T07:24:29;6.53;;;4.67;;
80963;SDS011;70425;59.322;13.486;2023-08-07T07:30:13;6.73;;;5.47;;
80963;SDS011;70425;59.322;13.486;2023-08-07T07:36:29;6.33;;;5.40;;
80963;SDS011;70425;59.322;13.486;2023-08-07T07:39:24;6.67;;;5.40;;
80963;SDS011;70425;59.322;13.486;2023-08-07T07:43:11;8.80;;;5.80;;
80963;SDS011;70425;59.322;13.486;2023-08-07T07:46:31;9.07;;;6.20;;
80963;SDS011;70425;59.322;13.486;2023-08-07T07:52:33;7.17;;;5.70;;
80963;SDS011;70425;59.322;13.486;2023-08-07T07:55:38;11.77;;;6.60;;
80963;SDS011;70425;59.322;13.486;2023-08-07T07:58:47;9.53;;;6.70;;
80963;SDS011;70425;59.322;13.486;2023-08-07T08:01:39;7.63;;;6.57;;
80963;SDS011;70425;59.322;13.486;2023-08-07T08:04:34;9.17;;;6.70;;
80963;SDS011;70425;59.322;13.486;2023-08-07T08:07:28;8.63;;;7.13;;
80963;SDS011;70425;59.322;13.486;2023-08-07T08:10:20;8.40;;;6.80;;
80963;SDS011;70425;59.322;13.486;2023-08-07T08:37:59;13.93;;;9.70;;
80963;SDS011;70425;59.322;13.486;2023-08-07T08:43:49;15.53;;;10.80;;
80963;SDS011;70425;59.322;13.486;2023-08-07T08:46:42;16.00;;;10.70;;
80963;SDS011;70425;59.322;13.486;2023-08-07T08:49:46;21.67;;;11.93;;
80963;SDS011;70425;59.322;13.486;2023-08-07T08:52:42;15.57;;;11.47;;
80963;SDS011;70425;59.322;13.486;2023-08-07T08:55:37;18.63;;;12.23;;
80963;SDS011;70425;59.322;13.486;2023-08-07T08:58:30;19.60;;;12.87;;
80963;SDS011;70425;59.322;13.486;2023-08-07T09:04:32;18.80;;;14.77;;
80963;SDS011;70425;59.322;13.486;2023-08-07T09:07:21;19.97;;;13.97;;
80963;SDS011;70425;59.322;13.486;2023-08-07T09:10:33;19.63;;;14.43;;
80963;SDS011;70425;59.322;13.486;2023-08-07T09:29:50;18.70;;;14.60;;
80963;SDS011;70425;59.322;13.486;2023-08-07T09:32:41;22.83;;;15.60;;
80963;SDS011;70425;59.322;13.486;2023-08-07T09:35:32;19.20;;;13.27;;
80963;SDS011;70425;59.322;13.486;2023-08-07T09:38:28;19.80;;;11.27;;
80963;SDS011;70425;59.322;13.486;2023-08-07T09:41:20;22.97;;;15.57;;
80963;SDS011;70425;59.322;13.486;2023-08-07T09:44:15;20.23;;;14.97;;
80963;SDS011;70425;59.322;13.486;2023-08-07T09:47:14;24.33;;;16.87;;
80963;SDS011;70425;59.322;13.486;2023-08-07T10:00:23;22.07;;;15.50;;
80963;SDS011;70425;59.322;13.486;2023-08-07T10:03:38;20.67;;;15.87;;
80963;SDS011;70425;59.322;13.486;2023-08-07T10:06:28;21.80;;;15.37;;
80963;SDS011;70425;59.322;13.486;2023-08-07T10:09:28;25.80;;;15.27;;
80963;SDS011;70425;59.322;13.486;2023-08-07T10:16:10;21.97;;;15.50;;
80963;SDS011;70425;59.322;13.486;2023-08-07T10:19:01;22.00;;;15.90;;
80963;SDS011;70425;59.322;13.486;2023-08-07T10:21:50;19.93;;;15.47;;
80963;SDS011;70425;59.322;13.486;2023-08-07T10:24:40;22.33;;;13.80;;
80963;SDS011;70425;59.322;13.486;2023-08-07T10:27:34;25.03;;;15.80;;
80963;SDS011;70425;59.322;13.486;2023-08-07T10:33:40;25.77;;;14.87;;
80963;SDS011;70425;59.322;13.486;2023-08-07T10:36:32;21.93;;;14.87;;
80963;SDS011;70425;59.322;13.486;2023-08-07T10:39:27;23.17;;;15.07;;
80963;SDS011;70425;59.322;13.486;2023-08-07T10:45:02;22.80;;;15.70;;
80963;SDS011;70425;59.322;13.486;2023-08-07T10:47:58;20.67;;;15.43;;
80963;SDS011;70425;59.322;13.486;2023-08-07T10:54:04;20.90;;;15.73;;
80963;SDS011;70425;59.322;13.486;2023-08-07T10:56:53;23.37;;;16.67;;
80963;SDS011;70425;59.322;13.486;2023-08-07T10:59:48;20.90;;;13.97;;
80963;SDS011;70425;59.322;13.486;2023-08-07T11:02:47;24.87;;;15.70;;
80963;SDS011;70425;59.322;13.486;2023-08-07T11:05:37;22.97;;;15.73;;
80963;SDS011;70425;59.322;13.486;2023-08-07T11:08:28;24.67;;;17.40;;
80963;SDS011;70425;59.322;13.486;2023-08-07T11:22:27;23.57;;;17.63;;
80963;SDS011;70425;59.322;13.486;2023-08-07T11:27:58;25.43;;;16.87;;
80963;SDS011;70425;59.322;13.486;2023-08-07T11:33:29;25.67;;;17.90;;
80963;SDS011;70425;59.322;13.486;2023-08-07T11:36:20;19.23;;;12.77;;
80963;SDS011;70425;59.322;13.486;2023-08-07T11:39:41;27.90;;;18.03;;
80963;SDS011;70425;59.322;13.486;2023-08-07T11:42:31;29.07;;;17.80;;
80963;SDS011;70425;59.322;13.486;2023-08-07T11:45:20;25.10;;;18.47;;
80963;SDS011;70425;59.322;13.486;2023-08-07T12:01:22;25.70;;;17.17;;
80963;SDS011;70425;59.322;13.486;2023-08-07T12:04:18;23.00;;;17.03;;
80963;SDS011;70425;59.322;13.486;2023-08-07T12:07:06;22.30;;;17.17;;
80963;SDS011;70425;59.322;13.486;2023-08-07T12:10:17;22.63;;;15.97;;
80963;SDS011;70425;59.322;13.486;2023-08-07T12:16:03;22.50;;;16.67;;
80963;SDS011;70425;59.322;13.486;2023-08-07T12:18:51;23.83;;;16.87;;
80963;SDS011;70425;59.322;13.486;2023-08-07T12:24:26;24.07;;;17.63;;
80963;SDS011;70425;59.322;13.486;2023-08-07T12:27:16;26.17;;;17.53;;
80963;SDS011;70425;59.322;13.486;2023-08-07T12:30:00;20.10;;;15.13;;
80963;SDS011;70425;59.322;13.486;2023-08-07T12:32:53;24.90;;;16.57;;
80963;SDS011;70425;59.322;13.486;2023-08-07T12:35:43;21.43;;;15.70;;
80963;SDS011;70425;59.322;13.486;2023-08-07T12:38:33;23.20;;;16.03;;
80963;SDS011;70425;59.322;13.486;2023-08-07T12:41:22;19.53;;;15.03;;
80963;SDS011;70425;59.322;13.486;2023-08-07T12:44:10;22.83;;;14.60;;
80963;SDS011;70425;59.322;13.486;2023-08-07T12:47:00;21.60;;;14.43;;
80963;SDS011;70425;59.322;13.486;2023-08-07T12:49:49;23.33;;;16.53;;
80963;SDS011;70425;59.322;13.486;2023-08-07T12:52:37;19.70;;;13.63;;
80963;SDS011;70425;59.322;13.486;2023-08-07T12:55:26;19.17;;;14.90;;
80963;SDS011;70425;59.322;13.486;2023-08-07T12:58:19;20.87;;;14.67;;
80963;SDS011;70425;59.322;13.486;2023-08-07T13:03:56;21.03;;;14.10;;
80963;SDS011;70425;59.322;13.486;2023-08-07T13:06:50;20.97;;;13.60;;
80963;SDS011;70425;59.322;13.486;2023-08-07T13:12:34;19.20;;;14.70;;
80963;SDS011;70425;59.322;13.486;2023-08-07T13:15:25;20.47;;;15.37;;
80963;SDS011;70425;59.322;13.486;2023-08-07T13:18:15;18.37;;;15.47;;
80963;SDS011;70425;59.322;13.486;2023-08-07T13:21:04;19.80;;;13.90;;
80963;SDS011;70425;59.322;13.486;2023-08-07T13:23:53;21.53;;;15.03;;
80963;SDS011;70425;59.322;13.486;2023-08-07T13:26:43;21.70;;;15.30;;
80963;SDS011;70425;59.322;13.486;2023-08-07T13:29:31;20.63;;;12.87;;
80963;SDS011;70425;59.322;13.486;2023-08-07T13:32:22;18.70;;;14.57;;
80963;SDS011;70425;59.322;13.486;2023-08-07T13:35:11;19.63;;;14.03;;
80963;SDS011;70425;59.322;13.486;2023-08-07T13:38:00;21.70;;;15.40;;
80963;SDS011;70425;59.322;13.486;2023-08-07T13:40:55;20.57;;;14.83;;
80963;SDS011;70425;59.322;13.486;2023-08-07T13:46:27;20.00;;;14.97;;
80963;SDS011;70425;59.322;13.486;2023-08-07T13:49:16;20.97;;;14.43;;
80963;SDS011;70425;59.322;13.486;2023-08-07T13:54:58;20.63;;;12.17;;
80963;SDS011;70425;59.322;13.486;2023-08-07T14:00:33;19.97;;;12.80;;
80963;SDS011;70425;59.322;13.486;2023-08-07T14:03:22;15.77;;;12.10;;
80963;SDS011;70425;59.322;13.486;2023-08-07T14:06:11;18.70;;;11.83;;
80963;SDS011;70425;59.322;13.486;2023-08-07T14:09:01;15.70;;;11.57;;
80963;SDS011;70425;59.322;13.486;2023-08-07T14:11:50;13.57;;;9.83;;
80963;SDS011;70425;59.322;13.486;2023-08-07T14:14:39;13.10;;;9.60;;
80963;SDS011;70425;59.322;13.486;2023-08-07T14:17:29;15.47;;;10.77;;
80963;SDS011;70425;59.322;13.486;2023-08-07T14:20:17;12.07;;;10.30;;
80963;SDS011;70425;59.322;13.486;2023-08-07T14:23:09;10.50;;;8.50;;
80963;SDS011;70425;59.322;13.486;2023-08-07T14:25:57;13.87;;;10.70;;
80963;SDS011;70425;59.322;13.486;2023-08-07T14:28:47;15.20;;;10.23;;
80963;SDS011;70425;59.322;13.486;2023-08-07T14:31:40;17.37;;;11.07;;
80963;SDS011;70425;59.322;13.486;2023-08-07T14:34:31;17.47;;;10.80;;
80963;SDS011;70425;59.322;13.486;2023-08-07T14:40:11;12.33;;;9.77;;
80963;SDS011;70425;59.322;13.486;2023-08-07T14:45:41;13.83;;;9.17;;
80963;SDS011;70425;59.322;13.486;2023-08-07T14:48:32;15.60;;;10.03;;
80963;SDS011;70425;59.322;13.486;2023-08-07T14:51:21;12.13;;;9.10;;
80963;SDS011;70425;59.322;13.486;2023-08-07T14:54:14;14.40;;;8.83;;
80963;SDS011;70425;59.322;13.486;2023-08-07T14:57:11;12.00;;;9.60;;
80963;SDS011;70425;59.322;13.486;2023-08-07T15:00:00;12.37;;;7.93;;
80963;SDS011;70425;59.322;13.486;2023-08-07T15:02:52;13.83;;;7.80;;
80963;SDS011;70425;59.322;13.486;2023-08-07T15:05:44;16.13;;;8.23;;
80963;SDS011;70425;59.322;13.486;2023-08-07T15:08:34;12.13;;;8.37;;
80963;SDS011;70425;59.322;13.486;2023-08-07T15:11:24;11.93;;;8.70;;
80963;SDS011;70425;59.322;13.486;2023-08-07T15:41:15;10.77;;;8.27;;
80963;SDS011;70425;59.322;13.486;2023-08-07T15:44:04;17.27;;;8.90;;
80963;SDS011;70425;59.322;13.486;2023-08-07T15:49:52;12.17;;;8.03;;
80963;SDS011;70425;59.322;13.486;2023-08-07T15:52:41;10.87;;;6.70;;
80963;SDS011;70425;59.322;13.486;2023-08-07T15:55:31;8.00;;;7.20;;
80963;SDS011;70425;59.322;13.486;2023-08-07T15:58:40;9.67;;;7.30;;
80963;SDS011;70425;59.322;13.486;2023-08-07T16:01:29;11.40;;;6.90;;
80963;SDS011;70425;59.322;13.486;2023-08-07T16:07:15;8.37;;;6.67;;
80963;SDS011;70425;59.322;13.486;2023-08-07T16:13:05;10.43;;;6.37;;
80963;SDS011;70425;59.322;13.486;2023-08-07T16:15:55;8.87;;;6.03;;
80963;SDS011;70425;59.322;13.486;2023-08-07T16:18:45;16.00;;;6.63;;
80963;SDS011;70425;59.322;13.486;2023-08-07T16:21:36;7.87;;;6.50;;
80963;SDS011;70425;59.322;13.486;2023-08-07T16:24:26;9.87;;;5.93;;
80963;SDS011;70425;59.322;13.486;2023-08-07T16:27:15;11.63;;;6.90;;
80963;SDS011;70425;59.322;13.486;2023-08-07T16:30:10;8.20;;;5.53;;
80963;SDS011;70425;59.322;13.486;2023-08-07T16:33:03;7.67;;;5.83;;
80963;SDS011;70425;59.322;13.486;2023-08-07T16:35:54;7.57;;;5.80;;
80963;SDS011;70425;59.322;13.486;2023-08-07T16:38:42;7.13;;;5.40;;
80963;SDS011;70425;59.322;13.486;2023-08-07T16:41:34;8.07;;;5.07;;
80963;SDS011;70425;59.322;13.486;2023-08-07T16:44:25;6.73;;;5.20;;
80963;SDS011;70425;59.322;13.486;2023-08-07T16:47:17;7.50;;;4.90;;
80963;SDS011;70425;59.322;13.486;2023-08-07T16:50:10;8.70;;;5.97;;
80963;SDS011;70425;59.322;13.486;2023-08-07T16:52:59;6.80;;;5.10;;
80963;SDS011;70425;59.322;13.486;2023-08-07T16:55:52;6.53;;;4.97;;
80963;SDS011;70425;59.322;13.486;2023-08-07T16:58:45;7.67;;;5.20;;
80963;SDS011;70425;59.322;13.486;2023-08-07T17:04:20;5.27;;;4.60;;
80963;SDS011;70425;59.322;13.486;2023-08-07T17:07:11;9.63;;;5.00;;
80963;SDS011;70425;59.322;13.486;2023-08-07T17:10:00;7.27;;;4.53;;
80963;SDS011;70425;59.322;13.486;2023-08-07T17:12:53;11.97;;;5.27;;
80963;SDS011;70425;59.322;13.486;2023-08-07T17:15:43;6.43;;;4.80;;
80963;SDS011;70425;59.322;13.486;2023-08-07T17:18:31;6.50;;;4.53;;
80963;SDS011;70425;59.322;13.486;2023-08-07T17:21:20;8.47;;;4.60;;
80963;SDS011;70425;59.322;13.486;2023-08-07T17:24:09;7.80;;;5.20;;
80963;SDS011;70425;59.322;13.486;2023-08-07T17:26:58;6.87;;;5.17;;
80963;SDS011;70425;59.322;13.486;2023-08-07T17:29:48;14.00;;;5.23;;
80963;SDS011;70425;59.322;13.486;2023-08-07T17:32:39;10.03;;;5.37;;
80963;SDS011;70425;59.322;13.486;2023-08-07T17:38:32;5.97;;;4.73;;
80963;SDS011;70425;59.322;13.486;2023-08-07T17:41:21;6.23;;;5.30;;
80963;SDS011;70425;59.322;13.486;2023-08-07T17:44:12;10.70;;;4.90;;
80963;SDS011;70425;59.322;13.486;2023-08-07T18:00:31;7.70;;;5.63;;
80963;SDS011;70425;59.322;13.486;2023-08-07T18:03:22;5.80;;;4.70;;
80963;SDS011;70425;59.322;13.486;2023-08-07T18:06:16;7.40;;;4.90;;
80963;SDS011;70425;59.322;13.486;2023-08-07T18:09:05;6.47;;;4.80;;
80963;SDS011;70425;59.322;13.486;2023-08-07T18:11:59;7.70;;;4.77;;
80963;SDS011;70425;59.322;13.486;2023-08-07T18:15:10;7.33;;;4.70;;
80963;SDS011;70425;59.322;13.486;2023-08-07T18:21:52;5.90;;;4.83;;
80963;SDS011;70425;59.322;13.486;2023-08-07T18:24:46;6.67;;;4.67;;
80963;SDS011;70425;59.322;13.486;2023-08-07T18:27:39;7.33;;;4.33;;
80963;SDS011;70425;59.322;13.486;2023-08-07T18:30:32;6.37;;;3.53;;
80963;SDS011;70425;59.322;13.486;2023-08-07T18:33:24;4.83;;;3.17;;
80963;SDS011;70425;59.322;13.486;2023-08-07T18:36:17;5.50;;;2.80;;
80963;SDS011;70425;59.322;13.486;2023-08-07T18:39:11;2.53;;;2.33;;
80963;SDS011;70425;59.322;13.486;2023-08-07T18:42:04;2.40;;;2.20;;
80963;SDS011;70425;59.322;13.486;2023-08-07T18:44:58;3.40;;;2.20;;
80963;SDS011;70425;59.322;13.486;2023-08-07T18:47:51;2.47;;;2.27;;
80963;SDS011;70425;59.322;13.486;2023-08-07T18:50:45;2.10;;;2.00;;
80963;SDS011;70425;59.322;13.486;2023-08-07T18:53:35;2.80;;;2.00;;
80963;SDS011;70425;59.322;13.486;2023-08-07T18:56:25;3.70;;;1.87;;
80963;SDS011;70425;59.322;13.486;2023-08-07T18:59:15;30.53;;;12.97;;
80963;SDS011;70425;59.322;13.486;2023-08-07T19:05:49;2.33;;;2.10;;
80963;SDS011;70425;59.322;13.486;2023-08-07T19:08:44;3.53;;;2.13;;
80963;SDS011;70425;59.322;13.486;2023-08-07T19:11:55;2.00;;;1.50;;
80963;SDS011;70425;59.322;13.486;2023-08-07T19:14:48;2.00;;;1.57;;
80963;SDS011;70425;59.322;13.486;2023-08-07T19:17:38;2.90;;;1.33;;
80963;SDS011;70425;59.322;13.486;2023-08-07T19:23:28;1.43;;;1.33;;
80963;SDS011;70425;59.322;13.486;2023-08-07T19:26:21;1.63;;;1.43;;
80963;SDS011;70425;59.322;13.486;2023-08-07T19:29:11;1.50;;;1.40;;
80963;SDS011;70425;59.322;13.486;2023-08-07T19:32:07;1.97;;;1.37;;
80963;SDS011;70425;59.322;13.486;2023-08-07T19:48:26;1.50;;;1.40;;
80963;SDS011;70425;59.322;13.486;2023-08-07T19:54:13;1.90;;;1.70;;
80963;SDS011;70425;59.322;13.486;2023-08-07T19:57:03;2.33;;;1.60;;
80963;SDS011;70425;59.322;13.486;2023-08-07T19:59:54;1.80;;;1.60;;
80963;SDS011;70425;59.322;13.486;2023-08-07T20:02:43;1.40;;;1.30;;
80963;SDS011;70425;59.322;13.486;2023-08-07T20:05:32;3.70;;;1.50;;
80963;SDS011;70425;59.322;13.486;2023-08-07T20:08:22;1.27;;;1.20;;
80963;SDS011;70425;59.322;13.486;2023-08-07T20:14:00;2.67;;;1.43;;
80963;SDS011;70425;59.322;13.486;2023-08-07T20:16:49;1.57;;;1.43;;
80963;SDS011;70425;59.322;13.486;2023-08-07T20:19:36;1.87;;;1.70;;
80963;SDS011;70425;59.322;13.486;2023-08-07T20:22:29;1.50;;;1.40;;
80963;SDS011;70425;59.322;13.486;2023-08-07T20:25:20;2.33;;;1.80;;
80963;SDS011;70425;59.322;13.486;2023-08-07T20:28:12;5.07;;;1.87;;
80963;SDS011;70425;59.322;13.486;2023-08-07T20:31:01;4.30;;;1.57;;
80963;SDS011;70425;59.322;13.486;2023-08-07T20:33:49;1.60;;;1.50;;
80963;SDS011;70425;59.322;13.486;2023-08-07T20:36:44;1.97;;;1.43;;
80963;SDS011;70425;59.322;13.486;2023-08-07T20:39:33;1.50;;;1.40;;
80963;SDS011;70425;59.322;13.486;2023-08-07T20:42:24;1.90;;;1.67;;
80963;SDS011;70425;59.322;13.486;2023-08-07T20:45:15;3.40;;;1.80;;
80963;SDS011;70425;59.322;13.486;2023-08-07T20:48:05;1.80;;;1.70;;
80963;SDS011;70425;59.322;13.486;2023-08-07T20:50:58;1.70;;;1.60;;
80963;SDS011;70425;59.322;13.486;2023-08-07T20:53:48;5.33;;;1.83;;
80963;SDS011;70425;59.322;13.486;2023-08-07T20:56:38;1.97;;;1.63;;
80963;SDS011;70425;59.322;13.486;2023-08-07T20:59:27;3.33;;;1.60;;
80963;SDS011;70425;59.322;13.486;2023-08-07T21:05:00;2.30;;;1.40;;
80963;SDS011;70425;59.322;13.486;2023-08-07T21:07:50;1.60;;;1.50;;
80963;SDS011;70425;59.322;13.486;2023-08-07T21:10:39;2.07;;;1.53;;
80963;SDS011;70425;59.322;13.486;2023-08-07T21:16:07;2.90;;;1.80;;
80963;SDS011;70425;59.322;13.486;2023-08-07T21:18:57;5.33;;;1.90;;
80963;SDS011;70425;59.322;13.486;2023-08-07T21:21:46;2.90;;;2.07;;
80963;SDS011;70425;59.322;13.486;2023-08-07T21:24:41;4.50;;;1.77;;
80963;SDS011;70425;59.322;13.486;2023-08-07T21:27:30;2.60;;;1.80;;
80963;SDS011;70425;59.322;13.486;2023-08-07T21:30:19;5.30;;;1.60;;
80963;SDS011;70425;59.322;13.486;2023-08-07T21:33:10;3.57;;;2.30;;
80963;SDS011;70425;59.322;13.486;2023-08-07T21:36:00;3.13;;;1.80;;
80963;SDS011;70425;59.322;13.486;2023-08-07T21:41:43;2.93;;;1.77;;
80963;SDS011;70425;59.322;13.486;2023-08-07T21:47:22;4.43;;;1.80;;
80963;SDS011;70425;59.322;13.486;2023-08-07T22:03:43;2.90;;;1.70;;
80963;SDS011;70425;59.322;13.486;2023-08-07T22:09:24;3.73;;;2.30;;
80963;SDS011;70425;59.322;13.486;2023-08-07T22:12:14;5.47;;;2.23;;
80963;SDS011;70425;59.322;13.486;2023-08-07T22:15:03;8.10;;;2.43;;
80963;SDS011;70425;59.322;13.486;2023-08-07T22:21:01;4.20;;;2.07;;
80963;SDS011;70425;59.322;13.486;2023-08-07T22:23:52;4.17;;;2.13;;
80963;SDS011;70425;59.322;13.486;2023-08-07T22:26:41;3.03;;;1.97;;
80963;SDS011;70425;59.322;13.486;2023-08-07T22:29:30;4.30;;;1.67;;
80963;SDS011;70425;59.322;13.486;2023-08-07T22:58:38;3.57;;;1.70;;
80963;SDS011;70425;59.322;13.486;2023-08-07T23:01:29;9.40;;;2.10;;
80963;SDS011;70425;59.322;13.486;2023-08-07T23:04:23;5.27;;;2.00;;
80963;SDS011;70425;59.322;13.486;2023-08-07T23:07:12;1.97;;;1.20;;
80963;SDS011;70425;59.322;13.486;2023-08-07T23:10:02;6.70;;;1.83;;
80963;SDS011;70425;59.322;13.486;2023-08-07T23:12:52;6.23;;;1.67;;
80963;SDS011;70425;59.322;13.486;2023-08-07T23:15:42;2.17;;;1.73;;
80963;SDS011;70425;59.322;13.486;2023-08-07T23:18:33;5.07;;;1.77;;
80963;SDS011;70425;59.322;13.486;2023-08-07T23:21:21;7.00;;;2.00;;
80963;SDS011;70425;59.322;13.486;2023-08-07T23:24:11;2.53;;;1.60;;
80963;SDS011;70425;59.322;13.486;2023-08-07T23:30:17;4.17;;;1.50;;
80963;SDS011;70425;59.322;13.486;2023-08-07T23:33:06;2.10;;;1.30;;
80963;SDS011;70425;59.322;13.486;2023-08-07T23:35:56;1.27;;;1.10;;
80963;SDS011;70425;59.322;13.486;2023-08-07T23:55:10;3.73;;;1.47;;
